Time;durP1;ratioP1;P1;durP2;ratioP2;P2;SDS_P1;SDS_P2;PMS_P1;PMS_P2;Temp;Humidity;BMP_temperature;BMP_pressure;BME280_temperature;BME280_humidity;BME280_pressure;Samples;Min_cycle;Max_cycle;Signal;HPM_P1;HPM_P2
2022/06/25 00:01:47;;;;;;;2.00;1.67;;;19.30;99.90;;;;;;5022562;28;20057;-46
2022/06/25 00:07:00;;;;;;;2.28;1.33;;;19.30;99.90;;;;;;5018208;28;20045;-44
2022/06/25 00:09:26;;;;;;;3.28;1.40;;;19.20;99.90;;;;;;5041405;28;20052;-45
2022/06/25 00:14:37;;;;;;;1.73;1.45;;;19.20;99.90;;;;;;5015009;28;20057;-45
2022/06/25 00:17:03;;;;;;;1.98;1.30;;;19.20;99.90;;;;;;5028096;28;20139;-43
2022/06/25 00:19:29;;;;;;;1.65;0.90;;;19.20;99.90;;;;;;5026629;28;20117;-45
2022/06/25 00:21:54;;;;;;;3.03;1.48;;;19.10;99.90;;;;;;5012944;28;20061;-44
2022/06/25 00:24:20;;;;;;;2.47;1.70;;;19.10;99.90;;;;;;5041594;28;20046;-46
2022/06/25 00:26:46;;;;;;;2.22;1.20;;;19.10;99.90;;;;;;5010860;28;20395;-44
2022/06/25 00:29:11;;;;;;;1.85;1.40;;;19.10;99.90;;;;;;5010740;28;20042;-48
2022/06/25 00:31:37;;;;;;;3.72;1.40;;;19.10;99.90;;;;;;5017769;28;20195;-45
2022/06/25 00:34:04;;;;;;;1.42;1.00;;;19.00;99.90;;;;;;5011512;28;20077;-44
2022/06/25 00:36:30;;;;;;;3.03;2.00;;;19.00;99.90;;;;;;5024679;28;20038;-46
2022/06/25 00:38:55;;;;;;;2.65;1.83;;;19.00;99.90;;;;;;5015737;28;20037;-44
2022/06/25 00:41:21;;;;;;;4.18;2.38;;;19.00;99.90;;;;;;5011946;28;20057;-44
2022/06/25 00:43:48;;;;;;;2.20;1.88;;;19.00;99.90;;;;;;5010226;28;20048;-45
2022/06/25 00:46:13;;;;;;;2.00;1.58;;;18.90;99.90;;;;;;5023082;28;20041;-45
2022/06/25 00:48:39;;;;;;;2.50;1.85;;;18.90;99.90;;;;;;5019007;28;20503;-45
2022/06/25 00:51:10;;;;;;;2.03;1.48;;;18.80;99.90;;;;;;5018956;28;20049;-44
2022/06/25 00:53:39;;;;;;;2.78;2.22;;;18.80;99.90;;;;;;5020158;28;20042;-43
2022/06/25 00:56:08;;;;;;;2.95;2.00;;;18.80;99.90;;;;;;5038578;28;20053;-44
2022/06/25 00:58:37;;;;;;;2.60;1.90;;;18.90;99.90;;;;;;5009864;28;20116;-47
2022/06/25 01:01:04;;;;;;;3.05;1.88;;;18.80;99.90;;;;;;5011548;28;20084;-44
2022/06/25 01:03:30;;;;;;;1.70;1.60;;;18.80;99.90;;;;;;5023959;28;20664;-45
2022/06/25 01:05:56;;;;;;;2.55;2.00;;;18.70;99.90;;;;;;5011472;28;20048;-45
2022/06/25 01:08:22;;;;;;;1.63;1.50;;;18.70;99.90;;;;;;5028588;28;20056;-44
2022/06/25 01:10:48;;;;;;;2.08;1.20;;;18.70;99.90;;;;;;5020390;28;20045;-44
2022/06/25 01:13:14;;;;;;;2.30;2.10;;;18.70;99.90;;;;;;5016869;28;20037;-46
2022/06/25 01:15:39;;;;;;;2.40;1.67;;;18.70;99.90;;;;;;5008819;28;20353;-45
2022/06/25 01:18:07;;;;;;;1.83;1.67;;;18.70;99.90;;;;;;5013941;28;20129;-45
2022/06/25 01:20:34;;;;;;;2.45;2.22;;;18.70;99.90;;;;;;5014211;28;20048;-44
2022/06/25 01:23:00;;;;;;;2.53;2.25;;;18.70;99.90;;;;;;5023404;28;20038;-44
2022/06/25 01:25:33;;;;;;;2.92;2.58;;;18.60;99.90;;;;;;5011066;28;20172;-45
2022/06/25 01:27:59;;;;;;;3.40;3.15;;;18.70;99.90;;;;;;5018780;28;20524;-45
2022/06/25 01:30:25;;;;;;;2.40;1.70;;;18.60;99.90;;;;;;5040282;28;20149;-47
2022/06/25 01:32:52;;;;;;;2.33;2.13;;;18.60;99.90;;;;;;5024092;28;20121;-45
2022/06/25 01:35:17;;;;;;;2.75;1.90;;;18.60;99.90;;;;;;5014231;28;20453;-48
2022/06/25 01:37:43;;;;;;;3.88;2.25;;;18.50;99.90;;;;;;5020339;28;20120;-46
2022/06/25 01:40:09;;;;;;;2.35;1.90;;;18.50;99.90;;;;;;5028002;28;20041;-45
2022/06/25 01:45:19;;;;;;;2.25;1.35;;;18.50;99.90;;;;;;5014457;28;20056;-45
2022/06/25 01:47:45;;;;;;;4.15;2.97;;;18.40;99.90;;;;;;5023892;28;20053;-45
2022/06/25 01:50:11;;;;;;;4.13;2.38;;;18.40;99.90;;;;;;5043347;28;20053;-44
2022/06/25 01:52:37;;;;;;;3.05;2.55;;;18.40;99.90;;;;;;5027943;28;20463;-47
2022/06/25 01:55:04;;;;;;;4.88;2.78;;;18.40;99.90;;;;;;5017896;28;20507;-44
2022/06/25 01:57:29;;;;;;;2.42;2.00;;;18.40;99.90;;;;;;5015991;28;20500;-48
2022/06/25 01:59:55;;;;;;;2.80;1.98;;;18.40;99.90;;;;;;5031562;28;20037;-45
2022/06/25 02:02:21;;;;;;;3.40;2.33;;;18.30;99.90;;;;;;5031857;28;20068;-45
2022/06/25 02:04:47;;;;;;;3.45;2.28;;;18.30;99.90;;;;;;5024054;28;20448;-48
2022/06/25 02:07:12;;;;;;;3.20;1.98;;;18.30;99.90;;;;;;5012246;28;20038;-44
2022/06/25 02:09:38;;;;;;;2.55;2.17;;;18.30;99.90;;;;;;5030000;28;20454;-44
2022/06/25 02:12:05;;;;;;;3.35;2.25;;;18.30;99.90;;;;;;5031386;28;20045;-46
2022/06/25 02:14:30;;;;;;;4.47;2.75;;;18.20;99.90;;;;;;5018746;28;20034;-45
2022/06/25 02:16:56;;;;;;;3.28;2.97;;;18.30;99.90;;;;;;5012623;28;20033;-44
2022/06/25 02:19:22;;;;;;;5.47;2.92;;;18.20;99.90;;;;;;5021024;28;20041;-46
2022/06/25 02:21:48;;;;;;;2.70;2.00;;;18.20;99.90;;;;;;5015842;28;20053;-44
2022/06/25 02:24:13;;;;;;;3.10;2.90;;;18.20;99.90;;;;;;5023482;28;20115;-44
2022/06/25 02:26:39;;;;;;;3.88;2.22;;;18.20;99.90;;;;;;5017551;28;20041;-46
2022/06/25 02:29:04;;;;;;;2.15;1.95;;;18.20;99.90;;;;;;5022445;28;20033;-46
2022/06/25 02:31:30;;;;;;;4.03;2.88;;;18.20;99.90;;;;;;5030783;28;20045;-43
2022/06/25 02:33:56;;;;;;;2.78;2.50;;;18.20;99.90;;;;;;5025635;28;20676;-44
2022/06/25 02:36:21;;;;;;;3.08;2.70;;;18.10;99.90;;;;;;5011637;28;20068;-46
2022/06/25 02:38:47;;;;;;;2.97;2.10;;;18.10;99.90;;;;;;5027383;28;20512;-49
2022/06/25 02:41:13;;;;;;;4.70;2.47;;;18.10;99.90;;;;;;5031193;28;20041;-45
2022/06/25 02:43:38;;;;;;;2.53;2.15;;;18.10;99.90;;;;;;5024873;28;20040;-47
2022/06/25 02:46:04;;;;;;;2.55;2.35;;;18.10;99.90;;;;;;5015630;28;20184;-44
2022/06/25 02:48:30;;;;;;;3.08;2.47;;;18.10;99.90;;;;;;5025061;28;20504;-47
2022/06/25 02:50:55;;;;;;;3.80;3.33;;;18.10;99.90;;;;;;5029916;28;20537;-44
2022/06/25 02:53:21;;;;;;;5.38;3.65;;;18.10;99.90;;;;;;5014059;28;20050;-46
2022/06/25 03:01:15;;;;;;;2.97;2.50;;;18.00;99.90;;;;;;5043920;28;20057;-46
2022/06/25 03:03:41;;;;;;;3.05;2.60;;;18.00;99.90;;;;;;5014451;28;20041;-48
2022/06/25 03:06:07;;;;;;;3.28;2.97;;;18.00;99.90;;;;;;5019049;28;20049;-46
2022/06/25 03:08:32;;;;;;;2.95;2.60;;;18.00;99.90;;;;;;5020097;28;20450;-44
2022/06/25 03:10:58;;;;;;;4.53;4.13;;;18.00;99.90;;;;;;5021193;28;20222;-49
2022/06/25 03:13:24;;;;;;;3.70;2.97;;;18.00;99.90;;;;;;5016219;28;20390;-46
2022/06/25 03:15:49;;;;;;;5.40;3.60;;;18.00;99.90;;;;;;5025786;28;20033;-44
2022/06/25 03:18:15;;;;;;;3.25;2.50;;;17.90;99.90;;;;;;5013213;28;20038;-44
2022/06/25 03:20:41;;;;;;;3.78;3.42;;;17.90;99.90;;;;;;5011284;28;20053;-45
2022/06/25 03:23:06;;;;;;;3.25;2.95;;;17.90;99.90;;;;;;5015987;28;20041;-44
2022/06/25 03:25:32;;;;;;;3.40;2.60;;;17.90;99.90;;;;;;5029821;28;20053;-44
2022/06/25 03:27:58;;;;;;;4.82;3.38;;;17.90;99.90;;;;;;5020958;28;20069;-44
2022/06/25 03:30:24;;;;;;;4.90;2.70;;;17.90;99.90;;;;;;5024069;28;20041;-46
2022/06/25 03:32:49;;;;;;;3.67;3.30;;;17.90;99.90;;;;;;5028272;28;20043;-44
2022/06/25 03:35:15;;;;;;;3.95;3.22;;;17.90;99.90;;;;;;5018888;28;20040;-45
2022/06/25 03:37:41;;;;;;;4.30;3.97;;;17.90;99.90;;;;;;5016761;28;20038;-44
2022/06/25 03:40:07;;;;;;;2.80;2.60;;;17.90;99.90;;;;;;5020082;28;20034;-44
2022/06/25 03:42:33;;;;;;;5.28;2.95;;;17.90;99.90;;;;;;5030473;28;20043;-45
2022/06/25 03:44:58;;;;;;;4.47;3.83;;;17.90;99.90;;;;;;5024901;28;20124;-46
2022/06/25 03:47:24;;;;;;;3.40;3.10;;;17.80;99.90;;;;;;5010167;28;20064;-46
2022/06/25 03:49:50;;;;;;;4.78;2.95;;;17.90;99.90;;;;;;5025447;28;20091;-46
2022/06/25 03:52:15;;;;;;;4.47;3.63;;;17.90;99.90;;;;;;5009474;28;20088;-46
2022/06/25 03:54:41;;;;;;;6.13;3.83;;;17.80;99.90;;;;;;5017920;28;20500;-46
2022/06/25 03:57:07;;;;;;;2.85;2.60;;;17.80;99.90;;;;;;5027643;28;20442;-44
2022/06/25 03:59:32;;;;;;;3.40;3.10;;;17.90;99.90;;;;;;5018278;28;20301;-46
2022/06/25 04:01:58;;;;;;;3.92;3.53;;;17.80;99.90;;;;;;5028892;28;20084;-45
2022/06/25 04:04:24;;;;;;;5.25;4.75;;;17.90;99.90;;;;;;5026782;28;20041;-44
2022/06/25 04:06:50;;;;;;;5.28;4.75;;;17.90;99.90;;;;;;5011501;28;20480;-44
2022/06/25 04:09:15;;;;;;;2.97;2.67;;;17.80;99.90;;;;;;5018137;28;20104;-45
2022/06/25 04:11:41;;;;;;;3.30;3.00;;;17.90;99.90;;;;;;5017472;28;20167;-47
2022/06/25 04:14:07;;;;;;;3.60;2.75;;;17.80;99.90;;;;;;5010604;28;20046;-44
2022/06/25 04:16:33;;;;;;;3.80;2.58;;;17.90;99.90;;;;;;5010053;28;20136;-45
2022/06/25 04:18:59;;;;;;;3.65;3.35;;;17.80;99.90;;;;;;5028787;28;20599;-44
2022/06/25 04:21:24;;;;;;;5.00;3.47;;;17.90;99.90;;;;;;4998806;28;20128;-44
2022/06/25 04:23:51;;;;;;;4.30;3.78;;;17.90;99.90;;;;;;5027084;28;20804;-49
2022/06/25 04:26:16;;;;;;;4.70;4.05;;;17.90;99.90;;;;;;5022392;28;20041;-44
2022/06/25 04:31:26;;;;;;;3.88;3.58;;;17.90;99.90;;;;;;5013983;28;20103;-44
2022/06/25 04:33:53;;;;;;;4.82;3.80;;;17.90;99.90;;;;;;5012831;28;20152;-43
2022/06/25 04:36:19;;;;;;;4.53;3.95;;;17.90;99.90;;;;;;5021347;28;20075;-44
2022/06/25 04:38:45;;;;;;;4.00;3.60;;;17.90;99.90;;;;;;5023926;28;20042;-44
2022/06/25 04:41:11;;;;;;;4.78;3.38;;;18.00;99.90;;;;;;5015050;28;20038;-44
2022/06/25 04:43:37;;;;;;;3.38;3.17;;;18.00;99.90;;;;;;5010767;28;20041;-46
2022/06/25 04:46:03;;;;;;;4.53;3.15;;;18.00;99.90;;;;;;5017285;28;20045;-44
2022/06/25 04:48:28;;;;;;;3.30;2.85;;;18.10;99.90;;;;;;5028501;28;20085;-44
2022/06/25 04:50:54;;;;;;;4.53;3.13;;;18.10;99.90;;;;;;5023911;28;20048;-45
2022/06/25 04:53:20;;;;;;;5.13;3.80;;;18.10;99.90;;;;;;5009667;28;20038;-45
2022/06/25 04:55:45;;;;;;;4.75;3.40;;;18.10;99.90;;;;;;5008643;28;20057;-45
2022/06/25 04:58:11;;;;;;;3.63;3.22;;;18.10;99.90;;;;;;5024643;28;20044;-44
2022/06/25 05:00:37;;;;;;;4.95;4.28;;;18.20;99.90;;;;;;5029582;28;20045;-43
2022/06/25 05:03:03;;;;;;;3.88;3.58;;;18.20;99.90;;;;;;5026669;28;20069;-44
2022/06/25 05:05:29;;;;;;;4.25;3.85;;;18.20;99.90;;;;;;5014778;28;20075;-44
2022/06/25 05:07:54;;;;;;;5.38;3.90;;;18.20;99.90;;;;;;5032310;28;20044;-45
2022/06/25 05:10:20;;;;;;;4.97;4.18;;;18.20;99.90;;;;;;5032548;28;20049;-45
2022/06/25 05:15:30;;;;;;;4.72;4.00;;;18.30;99.90;;;;;;5028742;28;20088;-45
2022/06/25 05:17:55;;;;;;;5.82;3.88;;;18.30;99.90;;;;;;5010268;28;20312;-44
2022/06/25 05:20:21;;;;;;;6.75;3.58;;;18.40;99.90;;;;;;5015470;28;20092;-45
2022/06/25 05:22:47;;;;;;;3.50;3.08;;;18.60;99.90;;;;;;5022305;28;20042;-44
2022/06/25 05:25:12;;;;;;;4.03;3.05;;;19.40;99.90;;;;;;5018853;28;20480;-45
2022/06/25 05:27:38;;;;;;;4.50;2.80;;;20.40;99.90;;;;;;5015112;28;20036;-44
2022/06/25 05:30:05;;;;;;;4.85;2.65;;;21.50;99.90;;;;;;5021128;28;20037;-45
2022/06/25 05:32:31;;;;;;;3.10;2.60;;;22.10;99.90;;;;;;5025930;28;20502;-44
2022/06/25 05:34:57;;;;;;;2.67;2.15;;;22.20;99.90;;;;;;5024060;28;20499;-44
2022/06/25 05:37:24;;;;;;;2.58;2.35;;;22.10;99.90;;;;;;5023970;28;20037;-45
2022/06/25 05:39:50;;;;;;;2.35;2.15;;;22.40;99.90;;;;;;5013888;28;20085;-45
2022/06/25 05:42:16;;;;;;;3.15;2.05;;;22.60;99.90;;;;;;5019806;28;20046;-44
2022/06/25 05:44:43;;;;;;;2.08;1.88;;;22.90;99.90;;;;;;5029550;28;20044;-44
2022/06/25 05:47:09;;;;;;;3.30;2.35;;;23.00;99.90;;;;;;5041797;28;20049;-44
2022/06/25 05:49:35;;;;;;;3.55;2.00;;;23.00;99.90;;;;;;5025781;28;20553;-44
2022/06/25 05:52:01;;;;;;;4.10;2.33;;;22.80;99.90;;;;;;5015968;28;20448;-44
2022/06/25 05:54:28;;;;;;;3.75;2.25;;;22.60;99.90;;;;;;5031135;28;20048;-44
2022/06/25 05:56:53;;;;;;;3.55;3.22;;;22.40;99.90;;;;;;5028395;28;20042;-44
2022/06/25 05:59:19;;;;;;;3.50;2.20;;;22.20;99.90;;;;;;5029560;28;20084;-45
2022/06/25 06:01:45;;;;;;;3.70;2.22;;;22.00;99.90;;;;;;5011916;28;20071;-44
2022/06/25 06:04:10;;;;;;;3.88;2.20;;;21.80;99.90;;;;;;5031178;28;20076;-44
2022/06/25 06:06:36;;;;;;;3.67;2.53;;;21.70;99.90;;;;;;5029003;28;20053;-44
2022/06/25 06:09:02;;;;;;;3.38;2.10;;;21.50;99.90;;;;;;5023564;28;20077;-44
2022/06/25 06:11:28;;;;;;;3.25;1.83;;;21.50;99.90;;;;;;5013786;28;20037;-44
2022/06/25 06:13:53;;;;;;;3.15;1.90;;;21.30;99.90;;;;;;5026695;28;20391;-43
2022/06/25 06:16:19;;;;;;;3.00;2.05;;;21.30;99.90;;;;;;5031059;28;20065;-45
2022/06/25 06:18:45;;;;;;;3.20;2.20;;;21.20;99.90;;;;;;5015363;28;20053;-44
2022/06/25 06:21:10;;;;;;;2.20;1.80;;;21.20;99.90;;;;;;5022102;28;20046;-45
2022/06/25 06:23:36;;;;;;;3.30;2.15;;;21.20;99.90;;;;;;5024947;28;20045;-44
2022/06/25 06:26:02;;;;;;;2.90;1.80;;;21.10;99.90;;;;;;5011079;28;20140;-45
2022/06/25 06:28:27;;;;;;;2.55;2.10;;;21.10;99.90;;;;;;5013604;28;20097;-45
2022/06/25 06:30:53;;;;;;;2.65;1.83;;;21.10;99.90;;;;;;5032042;28;20045;-46
2022/06/25 06:33:19;;;;;;;2.15;1.60;;;21.10;99.90;;;;;;5029990;28;20043;-46
2022/06/25 06:35:44;;;;;;;2.22;1.83;;;21.10;99.90;;;;;;5030027;28;20037;-44
2022/06/25 06:38:10;;;;;;;2.90;1.92;;;21.20;99.90;;;;;;5012308;28;20124;-45
2022/06/25 06:40:35;;;;;;;3.10;2.10;;;21.20;99.90;;;;;;5019931;28;20120;-45
2022/06/25 06:43:01;;;;;;;2.33;1.95;;;21.20;99.90;;;;;;5029551;28;20037;-44
2022/06/25 06:45:27;;;;;;;2.00;1.55;;;21.20;99.90;;;;;;5024815;28;20072;-43
2022/06/25 06:47:52;;;;;;;6.70;2.30;;;21.20;99.90;;;;;;5032185;28;20057;-45
2022/06/25 06:50:19;;;;;;;2.00;1.80;;;21.30;99.90;;;;;;5022560;28;20045;-44
2022/06/25 06:52:44;;;;;;;4.88;1.95;;;21.30;99.90;;;;;;5023316;28;20048;-44
2022/06/25 06:55:10;;;;;;;2.65;1.80;;;21.40;99.90;;;;;;4998468;28;20038;-44
2022/06/25 06:57:36;;;;;;;4.50;2.05;;;21.40;99.90;;;;;;5032160;28;20415;-49
2022/06/25 07:00:04;;;;;;;2.95;1.63;;;21.50;99.90;;;;;;5036885;28;20079;-44
2022/06/25 07:02:30;;;;;;;2.50;1.80;;;21.50;99.90;;;;;;5033539;28;20073;-44
2022/06/25 07:04:56;;;;;;;3.60;2.20;;;21.60;99.90;;;;;;5027428;28;20076;-44
2022/06/25 07:07:22;;;;;;;4.45;2.60;;;21.70;99.90;;;;;;5028188;28;20045;-48
2022/06/25 07:09:47;;;;;;;5.25;2.60;;;21.70;99.90;;;;;;5032690;28;20054;-45
2022/06/25 07:12:13;;;;;;;2.95;2.50;;;21.70;99.90;;;;;;5033682;28;20045;-43
2022/06/25 07:14:39;;;;;;;3.83;2.38;;;21.80;99.90;;;;;;5028929;28;20423;-45
2022/06/25 07:17:04;;;;;;;4.07;2.38;;;21.80;99.90;;;;;;5032411;28;20041;-46
2022/06/25 07:19:30;;;;;;;4.03;2.05;;;21.90;99.90;;;;;;5030842;28;20033;-47
2022/06/25 07:21:57;;;;;;;3.72;2.25;;;21.90;99.90;;;;;;5009843;28;20408;-44
2022/06/25 07:24:23;;;;;;;5.47;2.50;;;22.00;99.90;;;;;;5044429;28;20057;-43
2022/06/25 07:26:49;;;;;;;4.25;2.83;;;22.00;99.90;;;;;;5038450;28;20029;-48
2022/06/25 07:29:15;;;;;;;4.40;1.95;;;22.10;99.90;;;;;;5026707;28;20171;-46
2022/06/25 07:31:41;;;;;;;3.28;2.10;;;22.20;99.90;;;;;;5017288;28;20506;-43
2022/06/25 07:34:06;;;;;;;3.63;2.20;;;22.20;99.90;;;;;;5032570;28;20435;-46
2022/06/25 07:36:32;;;;;;;3.47;2.15;;;22.20;99.90;;;;;;5025073;28;20046;-46
2022/06/25 07:39:00;;;;;;;3.17;2.10;;;22.30;99.90;;;;;;5030309;28;20049;-45
2022/06/25 07:41:26;;;;;;;3.80;2.50;;;22.40;99.90;;;;;;5018154;28;20162;-45
2022/06/25 07:43:52;;;;;;;4.97;2.22;;;22.50;99.90;;;;;;5030612;28;20041;-46
2022/06/25 07:46:18;;;;;;;4.50;2.10;;;22.50;99.90;;;;;;5031111;28;20179;-46
2022/06/25 07:48:44;;;;;;;5.30;1.80;;;22.60;99.90;;;;;;5030202;28;20060;-45
2022/06/25 07:53:55;;;;;;;4.50;1.85;;;22.70;99.90;;;;;;5030919;28;20112;-44
2022/06/25 07:56:20;;;;;;;3.72;1.75;;;22.80;99.90;;;;;;5013046;28;20563;-44
2022/06/25 07:58:46;;;;;;;3.35;2.05;;;22.80;99.90;;;;;;5030762;28;20033;-43
2022/06/25 08:01:12;;;;;;;1.98;1.40;;;22.90;99.90;;;;;;5029174;28;20507;-44
2022/06/25 08:03:38;;;;;;;3.72;1.67;;;23.00;99.90;;;;;;5030419;28;20037;-44
2022/06/25 08:06:03;;;;;;;2.67;1.50;;;23.00;99.90;;;;;;5012628;28;20057;-44
2022/06/25 08:08:29;;;;;;;2.28;1.35;;;23.10;99.90;;;;;;5013061;28;20072;-44
2022/06/25 08:10:56;;;;;;;2.42;1.45;;;23.10;99.90;;;;;;5030329;28;20144;-44
2022/06/25 08:13:22;;;;;;;3.22;1.08;;;23.20;99.90;;;;;;5029346;28;20480;-44
2022/06/25 08:15:50;;;;;;;2.47;1.17;;;23.30;99.90;;;;;;5028903;28;20055;-44
2022/06/25 08:18:16;;;;;;;2.35;0.85;;;23.40;99.90;;;;;;5029155;28;20045;-44
2022/06/25 08:20:41;;;;;;;2.13;1.10;;;23.40;99.90;;;;;;5030208;28;20037;-44
2022/06/25 08:23:07;;;;;;;1.92;1.20;;;23.50;99.90;;;;;;5029174;28;20060;-45
2022/06/25 08:25:33;;;;;;;3.70;1.33;;;23.50;99.90;;;;;;5029359;28;20365;-44
2022/06/25 08:27:58;;;;;;;3.78;1.10;;;23.60;99.90;;;;;;5028906;28;20553;-44
2022/06/25 08:30:25;;;;;;;2.40;0.90;;;23.70;99.90;;;;;;5030174;28;20056;-44
2022/06/25 08:32:51;;;;;;;3.80;0.93;;;23.70;99.90;;;;;;5030002;28;20037;-44
2022/06/25 08:35:17;;;;;;;1.92;0.90;;;23.80;99.90;;;;;;5028598;28;20492;-44
2022/06/25 08:37:48;;;;;;;4.03;1.05;;;23.90;99.90;;;;;;5028636;28;20041;-45
2022/06/25 08:40:15;;;;;;;1.75;0.80;;;24.00;99.90;;;;;;5028320;28;20041;-44
2022/06/25 08:42:42;;;;;;;2.03;0.75;;;24.00;99.90;;;;;;5028628;28;20087;-45
2022/06/25 08:45:09;;;;;;;2.58;0.90;;;24.10;99.90;;;;;;5029827;28;20554;-44
2022/06/25 08:47:41;;;;;;;3.75;0.88;;;24.20;99.90;;;;;;5028565;28;20064;-45
2022/06/25 08:50:10;;;;;;;2.33;0.68;;;24.30;99.90;;;;;;5029939;28;20637;-48
2022/06/25 08:52:37;;;;;;;3.90;0.90;;;24.30;99.90;;;;;;5028491;28;20262;-44
2022/06/25 08:55:04;;;;;;;1.98;0.47;;;24.40;99.90;;;;;;5029832;28;20077;-43
2022/06/25 08:57:30;;;;;;;2.25;0.60;;;24.40;99.90;;;;;;5030367;28;20046;-43
2022/06/25 08:59:56;;;;;;;2.97;0.65;;;24.60;99.90;;;;;;5012547;28;20053;-45
2022/06/25 09:02:22;;;;;;;2.55;0.65;;;24.60;99.90;;;;;;5028474;28;20121;-44
2022/06/25 09:04:47;;;;;;;2.38;0.50;;;24.70;99.90;;;;;;5028596;28;20180;-44
2022/06/25 09:07:17;;;;;;;3.45;0.50;;;24.80;99.90;;;;;;5030059;28;20488;-46
2022/06/25 09:09:50;;;;;;;1.77;0.60;;;24.80;99.90;;;;;;5029094;28;20064;-45
2022/06/25 09:12:17;;;;;;;3.72;0.68;;;25.00;99.90;;;;;;5012113;28;20402;-44
2022/06/25 09:14:43;;;;;;;2.67;0.50;;;25.00;99.90;;;;;;5029587;28;20044;-43
2022/06/25 09:17:15;;;;;;;2.70;0.55;;;25.10;99.90;;;;;;5029591;28;20038;-44
2022/06/25 09:19:49;;;;;;;3.20;0.50;;;25.20;99.90;;;;;;5029587;28;20077;-44
2022/06/25 09:22:22;;;;;;;3.15;0.40;;;25.40;99.90;;;;;;5029688;28;20119;-44
2022/06/25 09:24:57;;;;;;;3.53;0.93;;;25.50;99.90;;;;;;5029644;28;20149;-47
2022/06/25 09:27:33;;;;;;;1.60;0.40;;;25.50;99.90;;;;;;5028491;28;20049;-44
2022/06/25 09:30:10;;;;;;;5.45;0.50;;;25.60;99.90;;;;;;5029820;28;20049;-45
2022/06/25 09:32:53;;;;;;;1.92;0.30;;;25.70;99.90;;;;;;5029508;28;20159;-44
2022/06/25 09:35:38;;;;;;;;;;;25.80;99.90;;;;;;5030428;28;20046;-43
2022/06/25 09:38:15;;;;;;;2.78;0.45;;;25.90;99.90;;;;;;5028216;28;19921;-44
2022/06/25 09:40:47;;;;;;;2.38;0.40;;;26.00;99.90;;;;;;5028192;28;20041;-44
2022/06/25 09:43:24;;;;;;;1.85;0.30;;;26.10;99.90;;;;;;5029362;28;20091;-46
2022/06/25 09:45:53;;;;;;;2.58;0.40;;;26.10;99.90;;;;;;5029242;28;20390;-45
2022/06/25 09:48:29;;;;;;;1.15;0.30;;;26.20;99.90;;;;;;5029026;28;20124;-44
2022/06/25 09:51:08;;;;;;;2.75;0.38;;;26.30;99.90;;;;;;5028767;28;20088;-44
2022/06/25 09:53:55;;;;;;;2.30;0.32;;;26.40;99.90;;;;;;5030484;28;20099;-46
2022/06/25 09:56:26;;;;;;;2.53;0.32;;;26.40;99.90;;;;;;5032309;28;20521;-45
2022/06/25 09:58:55;;;;;;;1.42;0.30;;;26.50;99.90;;;;;;5031340;28;20129;-45
2022/06/25 10:01:24;;;;;;;3.83;0.90;;;26.50;99.90;;;;;;5032618;28;20038;-44
2022/06/25 10:03:50;;;;;;;2.35;0.30;;;26.60;99.90;;;;;;5032911;28;20095;-46
2022/06/25 10:06:18;;;;;;;1.55;0.50;;;26.60;99.90;;;;;;5031657;28;20653;-46
2022/06/25 10:08:49;;;;;;;1.75;0.40;;;26.70;99.90;;;;;;5031676;28;20033;-46
2022/06/25 10:11:17;;;;;;;2.47;0.30;;;26.70;99.90;;;;;;5032548;28;20539;-46
2022/06/25 10:13:43;;;;;;;3.83;0.40;;;26.70;99.90;;;;;;5031175;28;20132;-45
2022/06/25 10:16:09;;;;;;;1.20;0.22;;;26.80;99.90;;;;;;4998625;28;20450;-45
2022/06/25 10:18:36;;;;;;;2.10;0.30;;;26.80;99.90;;;;;;5032274;28;20073;-45
2022/06/25 10:21:02;;;;;;;1.95;0.30;;;26.90;99.90;;;;;;5032254;28;20056;-49
2022/06/25 10:23:29;;;;;;;2.00;0.40;;;26.90;99.90;;;;;;5032338;28;20107;-47
2022/06/25 10:25:55;;;;;;;2.35;0.30;;;27.00;99.90;;;;;;5014531;28;20046;-46
2022/06/25 10:28:28;;;;;;;2.65;0.30;;;27.00;99.90;;;;;;5014270;28;20045;-46
2022/06/25 10:30:57;;;;;;;2.90;0.32;;;27.00;99.90;;;;;;5030886;28;20492;-46
2022/06/25 10:33:35;;;;;;;1.30;0.30;;;27.10;99.90;;;;;;5032242;28;20041;-49
2022/06/25 10:36:04;;;;;;;2.80;0.22;;;27.10;99.90;;;;;;5032193;28;20060;-47
2022/06/25 10:38:30;;;;;;;1.17;0.20;;;27.10;99.90;;;;;;5031861;28;20037;-49
2022/06/25 10:43:47;;;;;;;2.08;0.32;;;27.20;99.90;;;;;;5031994;28;20037;-46
2022/06/25 10:46:30;;;;;;;2.00;0.30;;;27.30;99.90;;;;;;5032264;28;20503;-43
2022/06/25 10:49:18;;;;;;;1.20;0.20;;;27.30;99.90;;;;;;5031596;28;20125;-45
2022/06/25 10:51:49;;;;;;;1.38;0.25;;;27.30;99.90;;;;;;5031576;28;20053;-45
2022/06/25 10:54:35;;;;;;;1.60;0.20;;;27.30;99.90;;;;;;5031009;28;20103;-48
2022/06/25 10:57:04;;;;;;;3.45;0.20;;;27.40;99.90;;;;;;5030265;28;20653;-45
2022/06/25 10:59:34;;;;;;;1.77;0.20;;;27.40;99.90;;;;;;5031567;28;20088;-45
2022/06/25 11:02:03;;;;;;;1.48;0.20;;;27.40;99.90;;;;;;5031852;28;20369;-46
2022/06/25 11:04:29;;;;;;;1.30;0.20;;;27.40;99.90;;;;;;5031453;28;20045;-44
2022/06/25 11:07:12;;;;;;;1.38;0.20;;;27.40;99.90;;;;;;5030937;28;20041;-44
2022/06/25 11:09:39;;;;;;;3.83;0.20;;;27.40;99.90;;;;;;5030510;28;20064;-46
2022/06/25 11:12:06;;;;;;;0.63;0.20;;;27.40;99.90;;;;;;5030394;28;20045;-45
2022/06/25 11:14:32;;;;;;;0.82;0.20;;;27.50;99.90;;;;;;5031288;28;20041;-44
2022/06/25 11:17:09;;;;;;;1.25;0.20;;;27.50;99.90;;;;;;5013517;28;20038;-45
2022/06/25 11:19:36;;;;;;;1.08;0.20;;;27.50;99.90;;;;;;5029940;28;20073;-44
2022/06/25 11:22:04;;;;;;;1.20;0.20;;;27.50;99.90;;;;;;5024274;28;20310;-44
2022/06/25 11:24:30;;;;;;;1.45;0.20;;;27.60;99.90;;;;;;5026647;28;20369;-44
2022/06/25 11:29:51;;;;;;;1.15;0.20;;;27.60;99.90;;;;;;5000477;28;20074;-46
2022/06/25 11:32:23;;;;;;;2.30;0.20;;;27.70;99.90;;;;;;5028228;28;20052;-46
2022/06/25 11:34:53;;;;;;;1.42;0.20;;;27.70;99.90;;;;;;5017325;28;20064;-44
2022/06/25 11:37:20;;;;;;;1.35;0.20;;;27.70;99.90;;;;;;5026809;28;21884;-44
2022/06/25 11:39:52;;;;;;;0.50;0.17;;;27.70;99.90;;;;;;5005691;28;20554;-47
2022/06/25 11:42:19;;;;;;;0.60;0.20;;;27.80;99.90;;;;;;5020217;28;20415;-44
2022/06/25 11:44:52;;;;;;;1.23;0.40;;;27.80;99.90;;;;;;5017302;28;20116;-44
2022/06/25 11:47:27;;;;;;;1.98;0.20;;;27.80;99.90;;;;;;5020086;28;20068;-46
2022/06/25 11:49:53;;;;;;;2.53;0.30;;;27.90;99.90;;;;;;5012764;28;20045;-48
2022/06/25 11:52:21;;;;;;;1.58;0.30;;;27.90;99.90;;;;;;5018414;28;20771;-43
2022/06/25 11:54:48;;;;;;;1.65;0.20;;;28.00;99.90;;;;;;5004727;28;20038;-44
2022/06/25 11:57:21;;;;;;;1.45;0.30;;;28.00;99.90;;;;;;5020184;28;20076;-44
2022/06/25 11:59:50;;;;;;;1.50;0.28;;;28.10;99.90;;;;;;5002977;28;20037;-45
2022/06/25 12:02:16;;;;;;;3.22;0.30;;;28.10;99.90;;;;;;5018460;28;20099;-47
2022/06/25 12:04:54;;;;;;;2.42;0.30;;;28.10;99.90;;;;;;5034239;28;20045;-44
2022/06/25 12:07:23;;;;;;;1.90;0.30;;;28.20;99.90;;;;;;5020137;28;20052;-44
2022/06/25 12:09:51;;;;;;;2.20;0.30;;;28.20;99.90;;;;;;5019797;28;20166;-47
2022/06/25 12:12:18;;;;;;;3.13;0.30;;;28.30;99.90;;;;;;5009678;28;20134;-45
2022/06/25 12:14:46;;;;;;;1.50;0.25;;;28.30;99.90;;;;;;5016888;28;20112;-44
2022/06/25 12:17:11;;;;;;;1.55;0.30;;;28.40;99.90;;;;;;5017568;28;20510;-44
2022/06/25 12:19:49;;;;;;;2.42;0.30;;;28.40;99.90;;;;;;5007978;28;20033;-45
2022/06/25 12:22:29;;;;;;;1.52;0.30;;;28.50;99.90;;;;;;5016652;28;20049;-44
2022/06/25 12:25:00;;;;;;;0.95;0.20;;;28.50;99.90;;;;;;5008832;28;20042;-44
2022/06/25 12:27:26;;;;;;;2.05;0.30;;;28.60;99.90;;;;;;5021879;28;20147;-44
2022/06/25 12:29:57;;;;;;;2.22;0.22;;;28.60;99.90;;;;;;5017080;28;20033;-45
2022/06/25 12:32:43;;;;;;;1.92;0.20;;;28.70;99.90;;;;;;5039782;28;20125;-43
2022/06/25 12:35:18;;;;;;;1.20;0.20;;;28.80;99.90;;;;;;5020895;28;20099;-45
2022/06/25 12:37:59;;;;;;;1.55;0.20;;;28.80;99.90;;;;;;5016734;28;20041;-44
2022/06/25 12:40:24;;;;;;;1.88;0.30;;;28.80;99.90;;;;;;5017505;28;20550;-48
2022/06/25 12:42:58;;;;;;;1.40;0.20;;;28.90;99.90;;;;;;5023336;28;20080;-45
2022/06/25 12:45:24;;;;;;;3.80;0.20;;;28.90;99.90;;;;;;5016382;28;20044;-45
2022/06/25 12:47:50;;;;;;;1.90;0.32;;;28.90;99.90;;;;;;5021607;28;20151;-45
2022/06/25 12:50:27;;;;;;;1.40;0.20;;;28.90;99.90;;;;;;5014291;28;20041;-46
2022/06/25 12:52:55;;;;;;;2.00;0.20;;;29.00;99.90;;;;;;5017185;28;20042;-45
2022/06/25 12:55:24;;;;;;;0.98;0.20;;;29.00;99.90;;;;;;5021670;28;20125;-44
2022/06/25 12:57:50;;;;;;;2.60;0.20;;;29.00;99.90;;;;;;5011984;28;20399;-46
2022/06/25 13:00:23;;;;;;;1.83;0.20;;;29.10;99.90;;;;;;5028151;28;20041;-45
2022/06/25 13:02:49;;;;;;;2.45;0.50;;;29.10;99.70;;;;;;5029825;28;20051;-48
2022/06/25 13:05:16;;;;;;;1.90;0.10;;;29.10;99.50;;;;;;5027144;28;20143;-45
2022/06/25 13:07:42;;;;;;;2.05;0.20;;;29.20;99.40;;;;;;5018509;28;20119;-45
2022/06/25 13:10:08;;;;;;;2.05;0.30;;;29.20;99.40;;;;;;5025409;28;20049;-46
2022/06/25 13:12:34;;;;;;;1.88;0.20;;;29.20;99.10;;;;;;5008288;28;20046;-44
2022/06/25 13:15:01;;;;;;;2.20;0.20;;;29.30;98.70;;;;;;5006913;28;20572;-44
2022/06/25 13:17:27;;;;;;;1.55;0.20;;;29.20;98.80;;;;;;5010036;28;20049;-45